createdAt,value
2022-12-13T00:02:09.083Z,32.14
2022-12-13T00:04:36.939Z,32.61
2022-12-13T00:07:10.067Z,32.82
2022-12-13T00:09:40.006Z,32.97
2022-12-13T00:12:10.342Z,33.20
2022-12-13T00:14:46.089Z,33.26
2022-12-13T00:17:16.190Z,33.50
2022-12-13T00:19:49.325Z,33.52
2022-12-13T00:22:28.228Z,33.65
2022-12-13T00:24:58.381Z,33.70
2022-12-13T00:27:32.016Z,33.70
2022-12-13T00:30:00.374Z,33.62
2022-12-13T00:32:37.570Z,33.84
2022-12-13T00:35:05.665Z,33.92
2022-12-13T00:37:38.574Z,34.11
2022-12-13T00:40:12.360Z,33.66
2022-12-13T00:42:43.496Z,33.90
2022-12-13T00:45:15.302Z,33.73
2022-12-13T00:47:46.783Z,33.79
2022-12-13T00:50:19.819Z,33.81
2022-12-13T00:52:53.153Z,33.67
2022-12-13T00:55:21.311Z,33.66
2022-12-13T00:57:52.276Z,33.95
2022-12-13T01:00:25.638Z,33.89
2022-12-13T01:02:59.257Z,34.02
2022-12-13T01:06:12.962Z,33.91
2022-12-13T01:08:27.635Z,34.14
2022-12-13T01:10:57.991Z,33.74
2022-12-13T01:13:27.846Z,34.04
2022-12-13T01:16:00.090Z,34.10
2022-12-13T01:18:30.512Z,33.80
2022-12-13T01:21:07.681Z,33.86
2022-12-13T01:23:38.065Z,34.12
2022-12-13T01:26:07.170Z,34.17
2022-12-13T01:28:38.137Z,34.14
2022-12-13T01:31:09.442Z,33.81
2022-12-13T01:33:38.915Z,33.97
2022-12-13T01:36:16.057Z,33.87
2022-12-13T01:38:50.090Z,33.76
2022-12-13T01:41:21.051Z,33.78
2022-12-13T01:44:01.437Z,34.07
2022-12-13T01:46:31.415Z,34.43
2022-12-13T01:49:19.763Z,33.96
2022-12-13T01:52:07.649Z,33.91
2022-12-13T01:54:46.696Z,34.28
2022-12-13T01:57:17.743Z,34.06
2022-12-13T01:59:53.263Z,33.99
2022-12-13T02:02:29.139Z,34.00
2022-12-13T02:05:11.443Z,33.64
2022-12-13T02:07:42.008Z,33.02
2022-12-13T02:10:10.905Z,33.18
2022-12-13T02:12:43.886Z,33.14
2022-12-13T02:15:15.241Z,33.09
2022-12-13T02:17:52.629Z,32.54
2022-12-13T02:20:58.100Z,32.72
2022-12-13T02:23:58.974Z,32.57
2022-12-13T02:27:30.416Z,32.10
2022-12-13T02:30:20.926Z,31.97
2022-12-13T02:33:03.481Z,31.65
2022-12-13T02:35:58.001Z,31.09
2022-12-13T02:38:30.912Z,31.48
2022-12-13T02:41:14.635Z,31.44
2022-12-13T02:44:01.481Z,31.22
2022-12-13T02:46:40.591Z,31.53
2022-12-13T02:49:16.339Z,31.36
2022-12-13T02:51:47.458Z,31.35
2022-12-13T02:54:17.506Z,31.38
2022-12-13T02:57:03.331Z,30.86
2022-12-13T02:59:43.315Z,30.92
2022-12-13T03:02:30.762Z,31.27
2022-12-13T03:05:48.424Z,31.25
2022-12-13T03:08:47.723Z,31.35
2022-12-13T03:11:20.146Z,31.37
2022-12-13T03:13:59.860Z,31.16
2022-12-13T03:16:51.680Z,31.34
2022-12-13T03:19:20.786Z,31.79
2022-12-13T03:21:50.024Z,32.11
2022-12-13T03:24:22.742Z,32.25
2022-12-13T03:26:51.899Z,32.36
2022-12-13T03:29:24.395Z,32.77
2022-12-13T03:31:53.707Z,33.22
2022-12-13T03:34:24.138Z,33.08
2022-12-13T03:36:56.922Z,33.19
2022-12-13T03:39:34.405Z,33.49
2022-12-13T03:42:06.356Z,33.32
2022-12-13T03:44:38.449Z,33.46
2022-12-13T03:47:06.482Z,33.62
2022-12-13T03:49:37.210Z,33.40
2022-12-13T03:52:12.644Z,33.49
2022-12-13T03:54:48.172Z,33.71
2022-12-13T03:57:16.349Z,33.66
2022-12-13T03:59:44.602Z,33.55
2022-12-13T04:02:31.174Z,33.81
2022-12-13T04:05:05.377Z,33.82
2022-12-13T04:07:36.163Z,33.78
2022-12-13T04:10:26.252Z,33.75
2022-12-13T04:13:15.480Z,33.66
2022-12-13T04:15:49.588Z,33.89
2022-12-13T04:18:28.227Z,33.93
2022-12-13T04:20:58.301Z,33.69
2022-12-13T04:23:28.827Z,34.28
2022-12-13T04:26:03.778Z,34.09
2022-12-13T04:28:36.240Z,34.11
2022-12-13T04:31:04.728Z,34.09
2022-12-13T04:33:35.815Z,34.20
2022-12-13T04:36:06.549Z,34.25
2022-12-13T04:38:38.265Z,34.28
2022-12-13T04:41:15.637Z,34.20
2022-12-13T04:43:52.637Z,34.03
2022-12-13T04:46:24.939Z,34.31
2022-12-13T04:48:54.787Z,34.33
2022-12-13T04:51:25.349Z,33.93
2022-12-13T04:54:23.442Z,33.82
2022-12-13T04:56:53.999Z,34.00
2022-12-13T04:59:21.672Z,34.40
2022-12-13T05:01:57.659Z,34.13
2022-12-13T05:04:32.614Z,34.13
2022-12-13T05:07:03.917Z,34.25
2022-12-13T05:09:32.908Z,34.34
2022-12-13T05:12:21.907Z,33.55
2022-12-13T05:14:53.490Z,34.45
2022-12-13T05:17:31.851Z,34.55
2022-12-13T05:20:00.823Z,34.32
2022-12-13T05:22:33.227Z,33.83
2022-12-13T05:25:06.952Z,33.73
2022-12-13T05:27:37.309Z,33.51
2022-12-13T05:30:10.394Z,33.57
2022-12-13T05:32:43.448Z,33.40
2022-12-13T05:35:21.824Z,33.30
2022-12-13T05:37:58.555Z,33.49
2022-12-13T05:40:34.608Z,33.43
2022-12-13T05:43:21.447Z,33.68
2022-12-13T05:45:52.733Z,33.35
2022-12-13T05:48:29.041Z,33.65
2022-12-13T05:51:10.859Z,33.46
2022-12-13T05:53:53.244Z,33.62
2022-12-13T05:56:26.477Z,33.72
2022-12-13T05:59:00.330Z,33.95
2022-12-13T06:01:28.232Z,33.80
2022-12-13T06:04:00.599Z,33.69
2022-12-13T06:06:39.274Z,33.42
2022-12-13T06:09:07.760Z,33.72
2022-12-13T06:11:43.182Z,33.74
2022-12-13T06:14:22.367Z,34.01
2022-12-13T06:16:54.677Z,33.80
2022-12-13T06:19:23.468Z,33.59
2022-12-13T06:21:58.064Z,33.86
2022-12-13T06:24:27.464Z,33.88
2022-12-13T06:26:54.801Z,34.00
2022-12-13T06:29:25.550Z,34.06
2022-12-13T06:32:03.075Z,33.94
2022-12-13T06:34:34.552Z,33.88
2022-12-13T06:37:08.237Z,33.58
2022-12-13T06:39:41.718Z,33.87
2022-12-13T06:42:22.338Z,33.79
2022-12-13T06:44:56.472Z,33.73
2022-12-13T06:47:31.669Z,33.83
2022-12-13T06:50:04.921Z,33.83
2022-12-13T06:52:35.896Z,34.27
2022-12-13T06:55:11.591Z,33.88
2022-12-13T06:57:40.950Z,33.83
2022-12-13T07:00:12.941Z,33.71
2022-12-13T07:02:47.089Z,33.74
2022-12-13T07:05:25.035Z,33.64
2022-12-13T07:07:58.159Z,33.89
2022-12-13T07:10:28.435Z,33.91
2022-12-13T07:12:58.944Z,33.53
2022-12-13T07:15:31.660Z,33.80
2022-12-13T07:18:00.245Z,33.93
2022-12-13T07:20:32.476Z,33.48
2022-12-13T07:23:05.447Z,33.55
2022-12-13T07:25:38.021Z,33.75
2022-12-13T07:28:11.081Z,33.96
2022-12-13T07:30:40.637Z,33.99
2022-12-13T07:33:13.139Z,33.53
2022-12-13T07:36:03.524Z,33.65
2022-12-13T07:38:31.360Z,33.83
2022-12-13T07:41:01.405Z,33.69
2022-12-13T07:43:35.118Z,33.49
2022-12-13T07:46:06.831Z,33.86
2022-12-13T07:48:43.917Z,33.77
2022-12-13T07:51:27.412Z,33.63
2022-12-13T07:53:58.392Z,33.74
2022-12-13T07:56:32.055Z,34.12
2022-12-13T07:59:07.234Z,33.90
2022-12-13T08:01:43.251Z,34.14
2022-12-13T08:04:21.453Z,34.15
2022-12-13T08:06:57.347Z,33.48
2022-12-13T08:09:37.030Z,33.82
2022-12-13T08:12:10.189Z,33.78
2022-12-13T08:14:48.907Z,33.79
2022-12-13T08:17:31.143Z,33.65
2022-12-13T08:20:05.264Z,33.61
2022-12-13T08:22:49.441Z,33.74
2022-12-13T08:25:23.175Z,33.69
2022-12-13T08:28:01.924Z,33.94
2022-12-13T08:30:39.212Z,33.95
2022-12-13T08:33:22.090Z,33.68
2022-12-13T08:35:54.203Z,34.12
2022-12-13T08:38:34.804Z,33.85
2022-12-13T08:41:15.524Z,34.03
2022-12-13T08:43:55.368Z,33.95
2022-12-13T08:46:23.367Z,34.33
2022-12-13T08:48:54.730Z,34.13
2022-12-13T08:51:29.567Z,34.48
2022-12-13T08:54:10.642Z,34.31
2022-12-13T08:56:43.685Z,33.93
2022-12-13T08:59:12.283Z,34.11
2022-12-13T09:01:47.748Z,34.10
2022-12-13T09:04:31.715Z,33.74
2022-12-13T09:07:05.390Z,34.21
2022-12-13T09:09:41.627Z,34.39
2022-12-13T09:12:30.416Z,33.72
2022-12-13T09:15:23.003Z,33.78
2022-12-13T09:17:56.646Z,33.78
2022-12-13T09:20:42.015Z,33.95
2022-12-13T09:23:23.338Z,33.92
2022-12-13T09:26:05.405Z,34.03
2022-12-13T09:28:35.484Z,34.55
2022-12-13T09:31:13.791Z,34.63
2022-12-13T09:33:45.536Z,34.03
2022-12-13T09:36:22.067Z,33.97
2022-12-13T09:38:55.975Z,34.01
2022-12-13T09:41:40.741Z,34.16
2022-12-13T09:44:32.138Z,33.91
2022-12-13T09:47:15.890Z,34.18
2022-12-13T09:50:15.132Z,33.72
2022-12-13T09:52:51.579Z,34.43
2022-12-13T09:55:40.182Z,34.26
2022-12-13T09:58:29.096Z,34.02
2022-12-13T10:01:03.420Z,33.69
2022-12-13T10:03:33.401Z,33.79
2022-12-13T10:06:23.482Z,34.14
2022-12-13T10:09:01.387Z,34.10
2022-12-13T10:11:35.474Z,34.15
2022-12-13T10:14:15.876Z,34.24
2022-12-13T10:16:51.773Z,33.94
2022-12-13T10:19:30.217Z,34.04
2022-12-13T10:22:04.916Z,33.60
2022-12-13T10:25:00.985Z,33.72
2022-12-13T10:27:38.214Z,33.91
2022-12-13T10:30:16.104Z,34.11
2022-12-13T10:32:57.708Z,33.73
2022-12-13T10:35:34.680Z,34.17
2022-12-13T10:38:08.601Z,33.82
2022-12-13T10:40:45.683Z,34.23
2022-12-13T10:43:13.825Z,34.21
2022-12-13T10:46:01.925Z,33.95
2022-12-13T10:48:38.768Z,33.97
2022-12-13T10:51:13.257Z,34.07
2022-12-13T10:53:46.927Z,33.64
2022-12-13T10:56:23.828Z,34.02
2022-12-13T10:59:20.943Z,34.05
2022-12-13T11:01:48.836Z,34.08
2022-12-13T11:04:35.106Z,33.87
2022-12-13T11:07:32.872Z,33.97
2022-12-13T11:10:39.761Z,33.62
2022-12-13T11:13:10.881Z,34.05
2022-12-13T11:15:39.040Z,33.90
2022-12-13T11:18:21.382Z,34.42
2022-12-13T11:21:02.693Z,34.23
2022-12-13T11:23:38.156Z,33.86
2022-12-13T11:26:15.130Z,33.93
2022-12-13T11:28:48.455Z,33.82
2022-12-13T11:31:33.784Z,33.88
2022-12-13T11:34:10.713Z,34.17
2022-12-13T11:36:58.566Z,34.16
2022-12-13T11:39:29.500Z,34.21
2022-12-13T11:42:04.442Z,34.23
2022-12-13T11:44:53.858Z,34.07
2022-12-13T11:47:44.546Z,34.12
2022-12-13T11:50:39.681Z,34.07
2022-12-13T11:53:38.537Z,33.85
2022-12-13T11:56:23.954Z,34.08
2022-12-13T11:59:14.555Z,33.79
2022-12-13T12:01:55.197Z,33.78
2022-12-13T12:04:35.763Z,33.77
2022-12-13T12:07:31.977Z,33.72
2022-12-13T12:10:24.771Z,34.40
2022-12-13T12:13:05.038Z,34.16
2022-12-13T12:15:41.880Z,34.18
2022-12-13T12:18:19.788Z,34.17
2022-12-13T12:21:16.466Z,33.95
2022-12-13T12:24:02.483Z,34.10
2022-12-13T12:26:40.808Z,34.19
2022-12-13T12:29:22.962Z,34.09
2022-12-13T12:32:08.974Z,34.13
2022-12-13T12:34:47.301Z,34.03
2022-12-13T12:37:25.662Z,34.08
2022-12-13T12:40:05.385Z,34.05
2022-12-13T12:43:14.438Z,34.32
2022-12-13T12:45:57.841Z,34.09
2022-12-13T12:48:55.101Z,33.96
2022-12-13T12:51:56.216Z,33.54
2022-12-13T12:55:05.924Z,33.98
2022-12-13T12:58:09.648Z,34.14
2022-12-13T13:00:51.395Z,33.85
2022-12-13T13:03:30.561Z,33.54
2022-12-13T13:06:11.606Z,33.92
2022-12-13T13:09:09.206Z,33.77
2022-12-13T13:11:44.278Z,34.12
2022-12-13T13:14:27.481Z,34.08
2022-12-13T13:17:17.129Z,34.30
2022-12-13T13:20:12.334Z,34.16
2022-12-13T13:22:42.952Z,34.15
2022-12-13T13:25:31.286Z,34.01
2022-12-13T13:28:19.521Z,33.76
2022-12-13T13:31:08.286Z,34.40
2022-12-13T13:33:46.995Z,34.17
2022-12-13T13:36:41.476Z,33.71
2022-12-13T13:39:19.486Z,34.74
2022-12-13T13:41:55.846Z,34.54
2022-12-13T13:44:40.823Z,34.19
2022-12-13T13:47:21.152Z,34.02
2022-12-13T13:50:15.927Z,33.84
2022-12-13T13:53:04.515Z,33.95
2022-12-13T13:56:00.138Z,34.23
2022-12-13T13:59:03.150Z,33.82
2022-12-13T14:02:00.958Z,33.84
2022-12-13T14:04:57.969Z,33.97
2022-12-13T14:07:38.620Z,34.38
2022-12-13T14:10:32.500Z,34.21
2022-12-13T14:13:15.807Z,34.54
2022-12-13T14:15:53.530Z,34.74
2022-12-13T14:18:42.605Z,34.71
2022-12-13T14:21:54.726Z,34.93
2022-12-13T14:24:46.648Z,34.22
2022-12-13T14:27:47.486Z,34.84
2022-12-13T14:30:27.948Z,34.46
2022-12-13T14:33:06.141Z,34.26
2022-12-13T14:35:58.155Z,33.95
2022-12-13T14:38:37.327Z,33.88
2022-12-13T14:41:21.212Z,34.21
2022-12-13T14:43:53.618Z,33.60
2022-12-13T14:46:27.380Z,33.88
2022-12-13T14:49:00.784Z,33.76
2022-12-13T14:51:37.670Z,33.63
2022-12-13T14:54:25.665Z,34.01
2022-12-13T14:57:03.624Z,33.70
2022-12-13T14:59:33.465Z,33.61
2022-12-13T15:02:04.467Z,34.02
2022-12-13T15:04:37.326Z,33.01
2022-12-13T15:07:15.461Z,33.62
2022-12-13T15:09:47.729Z,34.13
2022-12-13T15:12:25.253Z,33.62
2022-12-13T15:15:10.178Z,33.37
2022-12-13T15:17:42.464Z,33.12
2022-12-13T15:20:33.453Z,33.23
2022-12-13T15:23:48.781Z,33.24
2022-12-13T15:26:30.204Z,33.69
2022-12-13T15:29:11.156Z,33.56
2022-12-13T15:31:42.876Z,33.65
2022-12-13T15:34:30.351Z,33.77
2022-12-13T15:37:06.604Z,34.24
2022-12-13T15:39:48.141Z,33.80
2022-12-13T15:42:21.915Z,33.82
2022-12-13T15:45:02.002Z,33.55
2022-12-13T15:47:33.625Z,33.96
2022-12-13T15:50:07.577Z,33.63
2022-12-13T15:52:41.415Z,33.40
2022-12-13T15:55:19.374Z,33.59
2022-12-13T15:57:56.637Z,33.69
2022-12-13T16:00:30.890Z,33.71
2022-12-13T16:03:13.478Z,33.94
2022-12-13T16:05:51.899Z,33.93
2022-12-13T16:08:31.302Z,33.63
2022-12-13T16:11:02.446Z,34.13
2022-12-13T16:13:33.516Z,33.86
2022-12-13T16:16:29.013Z,33.65
2022-12-13T16:18:59.503Z,33.81
2022-12-13T16:21:29.156Z,33.60
2022-12-13T16:24:02.363Z,33.96
2022-12-13T16:26:40.646Z,33.71
2022-12-13T16:29:19.787Z,33.63
2022-12-13T16:32:01.438Z,34.03
2022-12-13T16:34:40.775Z,34.16
2022-12-13T16:37:25.630Z,33.63
2022-12-13T16:39:56.356Z,33.65
2022-12-13T16:42:27.885Z,33.75
2022-12-13T16:45:32.482Z,33.78
2022-12-13T16:47:51.044Z,34.00
2022-12-13T16:50:20.944Z,34.11
2022-12-13T16:53:03.747Z,34.46
2022-12-13T16:55:33.982Z,33.96
2022-12-13T16:58:07.537Z,33.75
2022-12-13T17:00:39.023Z,34.01
2022-12-13T17:03:14.935Z,34.13
2022-12-13T17:05:48.901Z,33.88
2022-12-13T17:08:34.847Z,34.00
2022-12-13T17:11:04.395Z,33.54
2022-12-13T17:13:37.372Z,33.61
2022-12-13T17:16:06.003Z,33.70
2022-12-13T17:18:37.177Z,33.78
2022-12-13T17:21:09.747Z,34.01
2022-12-13T17:23:37.822Z,34.23
2022-12-13T17:26:10.051Z,33.83
2022-12-13T17:28:38.765Z,33.60
2022-12-13T17:31:14.101Z,33.27
2022-12-13T17:33:48.007Z,33.27
2022-12-13T17:36:19.154Z,33.34
2022-12-13T17:38:50.300Z,33.26
2022-12-13T17:41:21.579Z,33.48
2022-12-13T17:43:49.657Z,33.03
2022-12-13T17:46:18.946Z,33.04
2022-12-13T17:48:51.463Z,33.00
2022-12-13T17:51:23.535Z,32.98
2022-12-13T17:53:54.412Z,32.83
2022-12-13T17:56:25.177Z,32.92
2022-12-13T17:58:55.831Z,33.20
2022-12-13T18:01:25.349Z,33.26
2022-12-13T18:03:55.755Z,33.03
2022-12-13T18:06:27.248Z,32.99
2022-12-13T18:08:57.948Z,33.47
2022-12-13T18:11:34.878Z,32.85
2022-12-13T18:14:07.328Z,33.51
2022-12-13T18:16:39.154Z,33.42
2022-12-13T18:19:08.227Z,33.50
2022-12-13T18:21:40.136Z,33.94
2022-12-13T18:24:13.044Z,34.05
2022-12-13T18:26:44.112Z,33.78
2022-12-13T18:29:17.914Z,34.00
2022-12-13T18:31:45.818Z,33.76
2022-12-13T18:34:19.425Z,34.06
2022-12-13T18:36:47.242Z,34.21
2022-12-13T18:39:14.959Z,34.11
2022-12-13T18:41:45.571Z,34.10
2022-12-13T18:44:16.178Z,34.07
2022-12-13T18:46:46.858Z,34.10
2022-12-13T18:49:14.623Z,33.17
2022-12-13T18:51:45.411Z,33.68
2022-12-13T18:54:16.218Z,33.57
2022-12-13T18:56:47.835Z,33.09
2022-12-13T18:59:20.329Z,33.07
2022-12-13T19:01:51.245Z,33.42
2022-12-13T19:04:21.874Z,32.77
2022-12-13T19:06:49.642Z,33.16
2022-12-13T19:09:22.276Z,33.08
2022-12-13T19:11:53.949Z,33.18
2022-12-13T19:14:26.880Z,33.20
2022-12-13T19:16:55.122Z,32.96
2022-12-13T19:19:24.918Z,33.28
2022-12-13T19:21:55.264Z,33.36
2022-12-13T19:24:23.272Z,33.42
2022-12-13T19:26:56.866Z,33.43
2022-12-13T19:29:27.360Z,33.67
2022-12-13T19:31:56.035Z,33.37
2022-12-13T19:34:24.014Z,33.26
2022-12-13T19:36:54.333Z,33.04
2022-12-13T19:39:22.182Z,33.07
2022-12-13T19:41:49.603Z,33.38
2022-12-13T19:44:20.609Z,33.07
2022-12-13T19:46:51.187Z,32.97
2022-12-13T19:49:23.692Z,33.13
2022-12-13T19:51:53.814Z,33.41
2022-12-13T19:54:24.837Z,33.08
2022-12-13T19:56:55.371Z,33.40
2022-12-13T19:59:25.775Z,33.37
2022-12-13T20:01:58.550Z,33.11
2022-12-13T20:04:26.391Z,33.06
2022-12-13T20:06:57.897Z,33.29
2022-12-13T20:09:26.644Z,33.45
2022-12-13T20:11:57.368Z,33.09
2022-12-13T20:14:28.300Z,33.39
2022-12-13T20:16:59.153Z,33.38
2022-12-13T20:19:32.927Z,33.42
2022-12-13T20:22:02.590Z,33.22
2022-12-13T20:24:33.650Z,33.47
2022-12-13T20:27:02.230Z,33.31
2022-12-13T20:29:32.903Z,33.54
2022-12-13T20:32:06.260Z,32.95
2022-12-13T20:34:37.222Z,33.23
2022-12-13T20:37:05.908Z,33.18
2022-12-13T20:39:33.617Z,33.33
2022-12-13T20:42:03.227Z,33.60
2022-12-13T20:44:33.838Z,33.48
2022-12-13T20:47:06.540Z,33.24
2022-12-13T20:49:36.823Z,33.20
2022-12-13T20:52:07.650Z,33.35
2022-12-13T20:54:36.236Z,33.37
2022-12-13T20:57:04.025Z,33.38
2022-12-13T20:59:32.286Z,33.21
2022-12-13T21:02:02.943Z,33.49
2022-12-13T21:04:34.243Z,33.48
2022-12-13T21:07:06.186Z,33.47
2022-12-13T21:09:39.353Z,33.64
2022-12-13T21:12:15.693Z,33.70
2022-12-13T21:14:43.445Z,33.38
2022-12-13T21:17:17.202Z,32.81
2022-12-13T21:19:48.853Z,32.70
2022-12-13T21:22:16.673Z,32.93
2022-12-13T21:24:49.736Z,32.82
2022-12-13T21:27:22.241Z,32.89
2022-12-13T21:29:55.174Z,33.49
2022-12-13T21:32:26.275Z,33.43
2022-12-13T21:34:56.909Z,33.25
2022-12-13T21:37:28.139Z,33.36
2022-12-13T21:40:01.755Z,32.97
2022-12-13T21:42:28.969Z,33.01
2022-12-13T21:45:02.327Z,33.07
2022-12-13T21:47:30.078Z,33.12
2022-12-13T21:50:01.954Z,32.98
2022-12-13T21:52:33.840Z,33.12
2022-12-13T21:55:22.121Z,32.93
2022-12-13T21:58:13.161Z,33.27
2022-12-13T22:00:44.064Z,33.57
2022-12-13T22:03:17.095Z,33.00
2022-12-13T22:05:46.998Z,33.39
2022-12-13T22:08:17.086Z,33.20
2022-12-13T22:11:21.312Z,33.79
2022-12-13T22:13:50.356Z,33.02
2022-12-13T22:16:20.707Z,33.07
2022-12-13T22:18:56.537Z,33.00
2022-12-13T22:21:27.586Z,33.23
2022-12-13T22:23:55.906Z,33.46
2022-12-13T22:26:25.238Z,33.64
2022-12-13T22:28:54.231Z,33.52
2022-12-13T22:31:26.715Z,33.44
2022-12-13T22:34:01.191Z,33.29
2022-12-13T22:36:31.774Z,33.49
2022-12-13T22:39:00.390Z,33.12
2022-12-13T22:41:31.346Z,33.50
2022-12-13T22:43:59.523Z,33.46
2022-12-13T22:46:29.529Z,33.64
2022-12-13T22:48:58.052Z,33.49
2022-12-13T22:51:28.454Z,33.42
2022-12-13T22:53:58.783Z,33.04
2022-12-13T22:56:30.356Z,33.35
2022-12-13T22:59:01.903Z,33.62
2022-12-13T23:01:32.447Z,33.54
2022-12-13T23:04:03.610Z,33.63
2022-12-13T23:06:36.572Z,33.51
2022-12-13T23:09:07.148Z,33.48
2022-12-13T23:11:53.409Z,33.68
2022-12-13T23:14:28.240Z,33.47
2022-12-13T23:17:01.176Z,33.11
2022-12-13T23:19:49.660Z,33.02
2022-12-13T23:22:22.965Z,33.72
2022-12-13T23:24:51.600Z,33.69
2022-12-13T23:27:23.499Z,33.59
2022-12-13T23:29:51.592Z,33.48
2022-12-13T23:32:22.330Z,33.58
2022-12-13T23:34:50.129Z,33.32
2022-12-13T23:37:26.261Z,33.34
2022-12-13T23:39:54.159Z,32.99
2022-12-13T23:42:29.273Z,33.10
2022-12-13T23:44:59.813Z,33.18
2022-12-13T23:47:36.767Z,33.07
2022-12-13T23:50:07.901Z,32.82
2022-12-13T23:52:37.340Z,33.17
2022-12-13T23:55:05.508Z,32.94
2022-12-13T23:57:36.259Z,33.44
